Terminal Aerodrome Forecast
Issued by NWS

Current Version | Previous Version | Text Only | Print | Product List | Glossary Off
Versions: 1 2 3 4 5 6 7 8 9 10 11 12 13 14 15 16 17 18 19 20

000
FTUS41 KPBZ 141700
TAFMGW
TAF
KMGW 141730Z 1418/1518 VRB03KT P6SM SCT040
     FM150900 00000KT 3SM BR SCT250
     FM151400 21005KT P6SM SCT040=

USA.gov is the U.S. government's official web portal to all federal, state and local government web resources and services.